sensor_id;sensor_type;location;lat;lon;timestamp;temperature;humidity
22416;DHT22;12204;50.600;4.608;2023-04-01T00:01:59;18.70;69.40
22416;DHT22;12204;50.600;4.608;2023-04-01T00:07:04;18.70;69.20
22416;DHT22;12204;50.600;4.608;2023-04-01T00:12:08;18.70;69.00
22416;DHT22;12204;50.600;4.608;2023-04-01T00:17:12;18.70;69.70
22416;DHT22;12204;50.600;4.608;2023-04-01T00:22:19;18.70;69.10
22416;DHT22;12204;50.600;4.608;2023-04-01T00:27:24;18.70;69.30
22416;DHT22;12204;50.600;4.608;2023-04-01T00:32:27;18.70;69.40
22416;DHT22;12204;50.600;4.608;2023-04-01T00:37:34;18.70;69.20
22416;DHT22;12204;50.600;4.608;2023-04-01T00:42:39;18.70;69.00
22416;DHT22;12204;50.600;4.608;2023-04-01T00:47:42;18.70;69.00
22416;DHT22;12204;50.600;4.608;2023-04-01T00:52:47;18.70;69.20
22416;DHT22;12204;50.600;4.608;2023-04-01T00:57:52;18.70;69.30
22416;DHT22;12204;50.600;4.608;2023-04-01T01:02:57;18.70;69.40
22416;DHT22;12204;50.600;4.608;2023-04-01T01:08:09;18.70;69.30
22416;DHT22;12204;50.600;4.608;2023-04-01T01:13:25;18.70;69.20
22416;DHT22;12204;50.600;4.608;2023-04-01T01:18:37;18.70;68.90
22416;DHT22;12204;50.600;4.608;2023-04-01T01:24:08;18.70;69.30
22416;DHT22;12204;50.600;4.608;2023-04-01T01:29:57;18.70;69.50
22416;DHT22;12204;50.600;4.608;2023-04-01T01:35:19;18.70;69.40
22416;DHT22;12204;50.600;4.608;2023-04-01T01:40:26;18.70;69.30
22416;DHT22;12204;50.600;4.608;2023-04-01T01:45:33;18.70;69.20
22416;DHT22;12204;50.600;4.608;2023-04-01T01:50:41;18.70;69.30
22416;DHT22;12204;50.600;4.608;2023-04-01T01:55:48;18.70;69.50
22416;DHT22;12204;50.600;4.608;2023-04-01T02:00:54;18.70;70.30
22416;DHT22;12204;50.600;4.608;2023-04-01T02:06:06;18.70;69.30
22416;DHT22;12204;50.600;4.608;2023-04-01T02:11:16;18.70;69.20
22416;DHT22;12204;50.600;4.608;2023-04-01T02:16:26;18.60;69.20
22416;DHT22;12204;50.600;4.608;2023-04-01T02:21:36;18.60;69.30
22416;DHT22;12204;50.600;4.608;2023-04-01T02:26:40;18.60;69.40
22416;DHT22;12204;50.600;4.608;2023-04-01T02:31:44;18.60;69.40
22416;DHT22;12204;50.600;4.608;2023-04-01T02:36:50;18.70;69.30
22416;DHT22;12204;50.600;4.608;2023-04-01T02:41:55;18.70;69.30
22416;DHT22;12204;50.600;4.608;2023-04-01T02:46:58;18.60;69.40
22416;DHT22;12204;50.600;4.608;2023-04-01T02:52:04;18.60;70.30
22416;DHT22;12204;50.600;4.608;2023-04-01T02:57:07;18.70;69.70
22416;DHT22;12204;50.600;4.608;2023-04-01T03:02:11;18.60;69.40
22416;DHT22;12204;50.600;4.608;2023-04-01T03:07:16;18.70;69.30
22416;DHT22;12204;50.600;4.608;2023-04-01T03:12:20;18.60;69.40
22416;DHT22;12204;50.600;4.608;2023-04-01T03:17:25;18.60;69.40
22416;DHT22;12204;50.600;4.608;2023-04-01T03:22:30;18.60;69.50
22416;DHT22;12204;50.600;4.608;2023-04-01T03:27:34;18.60;69.50
22416;DHT22;12204;50.600;4.608;2023-04-01T03:32:38;18.60;69.20
22416;DHT22;12204;50.600;4.608;2023-04-01T03:37:43;18.60;69.10
22416;DHT22;12204;50.600;4.608;2023-04-01T03:42:47;18.60;69.30
22416;DHT22;12204;50.600;4.608;2023-04-01T03:47:50;18.60;69.50
22416;DHT22;12204;50.600;4.608;2023-04-01T03:52:56;18.60;69.50
22416;DHT22;12204;50.600;4.608;2023-04-01T03:57:59;18.60;69.40
22416;DHT22;12204;50.600;4.608;2023-04-01T04:03:05;18.60;69.10
22416;DHT22;12204;50.600;4.608;2023-04-01T04:08:11;18.60;69.10
22416;DHT22;12204;50.600;4.608;2023-04-01T04:13:15;18.60;69.30
22416;DHT22;12204;50.600;4.608;2023-04-01T04:18:24;18.60;69.40
22416;DHT22;12204;50.600;4.608;2023-04-01T04:23:29;18.60;69.60
22416;DHT22;12204;50.600;4.608;2023-04-01T04:28:35;18.60;69.40
22416;DHT22;12204;50.600;4.608;2023-04-01T04:33:39;18.60;69.20
22416;DHT22;12204;50.600;4.608;2023-04-01T04:38:44;18.60;69.40
22416;DHT22;12204;50.600;4.608;2023-04-01T04:43:49;18.70;69.70
22416;DHT22;12204;50.600;4.608;2023-04-01T04:48:54;18.60;69.60
22416;DHT22;12204;50.600;4.608;2023-04-01T04:53:59;18.60;69.60
22416;DHT22;12204;50.600;4.608;2023-04-01T04:59:16;18.60;69.50
22416;DHT22;12204;50.600;4.608;2023-04-01T05:04:26;18.60;69.60
22416;DHT22;12204;50.600;4.608;2023-04-01T05:09:31;18.60;69.70
22416;DHT22;12204;50.600;4.608;2023-04-01T05:14:36;18.60;69.80
22416;DHT22;12204;50.600;4.608;2023-04-01T05:19:44;18.60;69.60
22416;DHT22;12204;50.600;4.608;2023-04-01T05:24:48;18.60;69.70
22416;DHT22;12204;50.600;4.608;2023-04-01T05:29:53;18.60;69.80
22416;DHT22;12204;50.600;4.608;2023-04-01T05:35:12;18.60;69.90
22416;DHT22;12204;50.600;4.608;2023-04-01T05:40:17;18.60;69.90
22416;DHT22;12204;50.600;4.608;2023-04-01T05:45:21;18.60;69.60
22416;DHT22;12204;50.600;4.608;2023-04-01T05:50:50;18.60;69.80
22416;DHT22;12204;50.600;4.608;2023-04-01T05:55:55;18.60;69.90
22416;DHT22;12204;50.600;4.608;2023-04-01T06:01:01;18.60;70.10
22416;DHT22;12204;50.600;4.608;2023-04-01T06:06:22;18.60;70.20
22416;DHT22;12204;50.600;4.608;2023-04-01T06:11:35;18.60;70.00
22416;DHT22;12204;50.600;4.608;2023-04-01T06:16:56;18.60;69.70
22416;DHT22;12204;50.600;4.608;2023-04-01T06:28:48;18.60;69.80
22416;DHT22;12204;50.600;4.608;2023-04-01T06:34:54;18.60;69.90
22416;DHT22;12204;50.600;4.608;2023-04-01T06:40:34;18.60;70.70
22416;DHT22;12204;50.600;4.608;2023-04-01T06:45:57;18.60;69.80
22416;DHT22;12204;50.600;4.608;2023-04-01T06:51:32;18.60;70.00
22416;DHT22;12204;50.600;4.608;2023-04-01T07:02:31;18.60;70.30
22416;DHT22;12204;50.600;4.608;2023-04-01T07:07:42;18.60;70.20
22416;DHT22;12204;50.600;4.608;2023-04-01T07:12:52;18.60;69.90
22416;DHT22;12204;50.600;4.608;2023-04-01T07:18:32;18.60;69.90
22416;DHT22;12204;50.600;4.608;2023-04-01T07:23:42;18.60;70.10
22416;DHT22;12204;50.600;4.608;2023-04-01T07:29:01;18.60;70.20
22416;DHT22;12204;50.600;4.608;2023-04-01T07:34:22;18.60;70.00
22416;DHT22;12204;50.600;4.608;2023-04-01T07:39:36;18.60;69.90
22416;DHT22;12204;50.600;4.608;2023-04-01T07:45:14;18.60;69.90
22416;DHT22;12204;50.600;4.608;2023-04-01T07:50:28;18.60;70.10
22416;DHT22;12204;50.600;4.608;2023-04-01T07:55:39;18.60;70.30
22416;DHT22;12204;50.600;4.608;2023-04-01T08:00:53;18.60;70.30
22416;DHT22;12204;50.600;4.608;2023-04-01T08:06:14;18.60;70.00
22416;DHT22;12204;50.600;4.608;2023-04-01T08:11:31;18.60;69.80
22416;DHT22;12204;50.600;4.608;2023-04-01T08:17:07;18.60;70.00
22416;DHT22;12204;50.600;4.608;2023-04-01T08:22:23;18.60;70.10
22416;DHT22;12204;50.600;4.608;2023-04-01T08:27:37;18.60;70.20
22416;DHT22;12204;50.600;4.608;2023-04-01T08:32:46;18.60;69.90
22416;DHT22;12204;50.600;4.608;2023-04-01T08:37:55;18.60;70.50
22416;DHT22;12204;50.600;4.608;2023-04-01T08:43:09;18.60;69.90
22416;DHT22;12204;50.600;4.608;2023-04-01T08:54:35;18.60;70.10
22416;DHT22;12204;50.600;4.608;2023-04-01T09:00:11;18.60;69.90
22416;DHT22;12204;50.600;4.608;2023-04-01T09:06:06;18.60;69.90
22416;DHT22;12204;50.600;4.608;2023-04-01T09:11:38;18.60;70.00
22416;DHT22;12204;50.600;4.608;2023-04-01T09:17:34;18.60;70.10
22416;DHT22;12204;50.600;4.608;2023-04-01T09:30:03;18.60;70.00
22416;DHT22;12204;50.600;4.608;2023-04-01T09:48:00;18.60;69.80
22416;DHT22;12204;50.600;4.608;2023-04-01T09:54:02;18.60;69.90
22416;DHT22;12204;50.600;4.608;2023-04-01T10:06:17;18.60;69.80
22416;DHT22;12204;50.600;4.608;2023-04-01T10:12:42;18.60;69.70
22416;DHT22;12204;50.600;4.608;2023-04-01T10:18:22;18.60;69.80
22416;DHT22;12204;50.600;4.608;2023-04-01T11:35:37;18.70;69.80
22416;DHT22;12204;50.600;4.608;2023-04-01T11:40:56;18.70;69.80
22416;DHT22;12204;50.600;4.608;2023-04-01T11:46:47;18.70;69.90
22416;DHT22;12204;50.600;4.608;2023-04-01T11:52:29;18.70;70.00
22416;DHT22;12204;50.600;4.608;2023-04-01T12:04:11;18.70;69.80
22416;DHT22;12204;50.600;4.608;2023-04-01T12:09:48;18.70;70.00
22416;DHT22;12204;50.600;4.608;2023-04-01T12:15:04;18.70;70.00
22416;DHT22;12204;50.600;4.608;2023-04-01T12:20:33;18.70;69.90
22416;DHT22;12204;50.600;4.608;2023-04-01T12:26:05;18.70;69.80
22416;DHT22;12204;50.600;4.608;2023-04-01T12:31:34;18.60;69.90
22416;DHT22;12204;50.600;4.608;2023-04-01T12:36:54;18.60;70.10
22416;DHT22;12204;50.600;4.608;2023-04-01T12:42:14;18.60;70.00
22416;DHT22;12204;50.600;4.608;2023-04-01T12:47:31;18.60;69.80
22416;DHT22;12204;50.600;4.608;2023-04-01T12:53:14;18.70;70.00
22416;DHT22;12204;50.600;4.608;2023-04-01T12:58:50;18.70;70.00
22416;DHT22;12204;50.600;4.608;2023-04-01T13:04:37;18.70;70.20
22416;DHT22;12204;50.600;4.608;2023-04-01T13:10:01;18.70;70.10
22416;DHT22;12204;50.600;4.608;2023-04-01T13:15:14;18.70;69.80
22416;DHT22;12204;50.600;4.608;2023-04-01T13:20:36;18.70;69.80
22416;DHT22;12204;50.600;4.608;2023-04-01T13:25:57;18.70;69.90
22416;DHT22;12204;50.600;4.608;2023-04-01T13:31:29;18.70;70.10
22416;DHT22;12204;50.600;4.608;2023-04-01T13:36:50;18.70;70.00
22416;DHT22;12204;50.600;4.608;2023-04-01T13:42:14;18.60;69.80
22416;DHT22;12204;50.600;4.608;2023-04-01T14:05:48;18.60;69.80
22416;DHT22;12204;50.600;4.608;2023-04-01T14:11:05;18.70;70.00
22416;DHT22;12204;50.600;4.608;2023-04-01T14:16:52;18.60;70.10
22416;DHT22;12204;50.600;4.608;2023-04-01T14:22:08;18.60;70.00
22416;DHT22;12204;50.600;4.608;2023-04-01T14:27:30;18.60;69.80
22416;DHT22;12204;50.600;4.608;2023-04-01T14:32:54;18.60;69.80
22416;DHT22;12204;50.600;4.608;2023-04-01T14:44:10;18.60;70.00
22416;DHT22;12204;50.600;4.608;2023-04-01T14:49:32;18.60;69.80
22416;DHT22;12204;50.600;4.608;2023-04-01T14:54:40;18.60;69.80
22416;DHT22;12204;50.600;4.608;2023-04-01T14:59:49;18.60;70.00
22416;DHT22;12204;50.600;4.608;2023-04-01T15:05:08;18.60;70.00
22416;DHT22;12204;50.600;4.608;2023-04-01T15:10:34;18.60;69.90
22416;DHT22;12204;50.600;4.608;2023-04-01T15:15:59;18.60;69.80
22416;DHT22;12204;50.600;4.608;2023-04-01T15:21:38;18.60;70.00
22416;DHT22;12204;50.600;4.608;2023-04-01T15:27:20;18.60;70.00
22416;DHT22;12204;50.600;4.608;2023-04-01T15:32:42;18.60;69.90
22416;DHT22;12204;50.600;4.608;2023-04-01T15:38:06;18.60;69.70
22416;DHT22;12204;50.600;4.608;2023-04-01T15:43:27;18.60;69.80
22416;DHT22;12204;50.600;4.608;2023-04-01T15:48:55;18.60;69.90
22416;DHT22;12204;50.600;4.608;2023-04-01T15:54:40;18.60;70.10
22416;DHT22;12204;50.600;4.608;2023-04-01T16:00:25;18.60;70.20
22416;DHT22;12204;50.600;4.608;2023-04-01T16:05:36;18.60;70.00
22416;DHT22;12204;50.600;4.608;2023-04-01T16:10:55;18.60;70.10
22416;DHT22;12204;50.600;4.608;2023-04-01T16:16:19;18.60;70.20
22416;DHT22;12204;50.600;4.608;2023-04-01T16:21:36;18.60;70.30
22416;DHT22;12204;50.600;4.608;2023-04-01T16:26:52;18.60;70.10
22416;DHT22;12204;50.600;4.608;2023-04-01T16:32:17;18.60;70.10
22416;DHT22;12204;50.600;4.608;2023-04-01T16:37:33;18.60;70.10
22416;DHT22;12204;50.600;4.608;2023-04-01T16:42:48;18.50;70.10
22416;DHT22;12204;50.600;4.608;2023-04-01T16:47:56;18.50;70.20
22416;DHT22;12204;50.600;4.608;2023-04-01T16:53:14;18.50;70.00
22416;DHT22;12204;50.600;4.608;2023-04-01T16:58:34;18.50;70.10
22416;DHT22;12204;50.600;4.608;2023-04-01T17:03:50;18.50;70.20
22416;DHT22;12204;50.600;4.608;2023-04-01T17:09:24;18.50;70.10
22416;DHT22;12204;50.600;4.608;2023-04-01T17:14:45;18.50;69.90
22416;DHT22;12204;50.600;4.608;2023-04-01T17:20:07;18.50;70.10
22416;DHT22;12204;50.600;4.608;2023-04-01T17:25:34;18.50;70.20
22416;DHT22;12204;50.600;4.608;2023-04-01T17:30:56;18.50;70.30
22416;DHT22;12204;50.600;4.608;2023-04-01T17:36:16;18.50;70.40
22416;DHT22;12204;50.600;4.608;2023-04-01T17:41:40;18.50;70.20
22416;DHT22;12204;50.600;4.608;2023-04-01T17:47:12;18.50;70.00
22416;DHT22;12204;50.600;4.608;2023-04-01T17:52:32;18.50;70.10
22416;DHT22;12204;50.600;4.608;2023-04-01T17:57:46;18.50;70.30
22416;DHT22;12204;50.600;4.608;2023-04-01T18:03:05;18.50;70.40
22416;DHT22;12204;50.600;4.608;2023-04-01T18:08:33;18.50;70.30
22416;DHT22;12204;50.600;4.608;2023-04-01T18:19:53;18.50;70.10
22416;DHT22;12204;50.600;4.608;2023-04-01T18:25:19;18.50;70.30
22416;DHT22;12204;50.600;4.608;2023-04-01T18:30:28;18.50;70.40
22416;DHT22;12204;50.600;4.608;2023-04-01T18:35:48;18.50;70.60
22416;DHT22;12204;50.600;4.608;2023-04-01T18:41:12;18.50;71.30
22416;DHT22;12204;50.600;4.608;2023-04-01T18:46:19;18.50;70.20
22416;DHT22;12204;50.600;4.608;2023-04-01T18:51:38;18.50;70.20
22416;DHT22;12204;50.600;4.608;2023-04-01T18:56:49;18.50;70.30
22416;DHT22;12204;50.600;4.608;2023-04-01T19:02:00;18.40;70.40
22416;DHT22;12204;50.600;4.608;2023-04-01T19:07:40;18.40;70.40
22416;DHT22;12204;50.600;4.608;2023-04-01T19:13:02;18.50;70.20
22416;DHT22;12204;50.600;4.608;2023-04-01T19:25:01;18.50;70.40
22416;DHT22;12204;50.600;4.608;2023-04-01T19:30:29;18.50;70.40
22416;DHT22;12204;50.600;4.608;2023-04-01T19:35:42;18.40;70.60
22416;DHT22;12204;50.600;4.608;2023-04-01T19:40:54;18.40;70.50
22416;DHT22;12204;50.600;4.608;2023-04-01T19:46:04;18.50;70.30
22416;DHT22;12204;50.600;4.608;2023-04-01T19:51:20;18.40;70.10
22416;DHT22;12204;50.600;4.608;2023-04-01T19:56:38;18.40;70.20
22416;DHT22;12204;50.600;4.608;2023-04-01T20:01:50;18.40;70.40
22416;DHT22;12204;50.600;4.608;2023-04-01T20:07:00;18.40;70.50
22416;DHT22;12204;50.600;4.608;2023-04-01T20:12:17;18.40;70.60
22416;DHT22;12204;50.600;4.608;2023-04-01T20:17:39;18.50;70.40
22416;DHT22;12204;50.600;4.608;2023-04-01T20:23:28;18.40;70.10
22416;DHT22;12204;50.600;4.608;2023-04-01T20:28:48;18.40;
22416;DHT22;12204;50.600;4.608;2023-04-01T20:34:57;18.40;70.20
22416;DHT22;12204;50.600;4.608;2023-04-01T20:40:37;18.40;70.40
22416;DHT22;12204;50.600;4.608;2023-04-01T20:45:48;18.40;70.30
22416;DHT22;12204;50.600;4.608;2023-04-01T20:51:05;18.40;70.10
22416;DHT22;12204;50.600;4.608;2023-04-01T20:56:22;18.40;70.00
22416;DHT22;12204;50.600;4.608;2023-04-01T21:01:42;18.40;70.10
22416;DHT22;12204;50.600;4.608;2023-04-01T21:07:14;18.40;70.20
22416;DHT22;12204;50.600;4.608;2023-04-01T21:12:30;18.40;70.40
22416;DHT22;12204;50.600;4.608;2023-04-01T21:17:52;18.40;70.20
22416;DHT22;12204;50.600;4.608;2023-04-01T21:23:14;18.40;70.40
22416;DHT22;12204;50.600;4.608;2023-04-01T21:28:38;18.40;70.20
22416;DHT22;12204;50.600;4.608;2023-04-01T21:39:57;18.40;70.50
22416;DHT22;12204;50.600;4.608;2023-04-01T21:45:22;18.40;70.30
22416;DHT22;12204;50.600;4.608;2023-04-01T22:09:18;18.40;70.50
22416;DHT22;12204;50.600;4.608;2023-04-01T22:14:32;18.40;70.20
22416;DHT22;12204;50.600;4.608;2023-04-01T22:19:46;18.40;70.10
22416;DHT22;12204;50.600;4.608;2023-04-01T22:25:03;18.40;70.30
22416;DHT22;12204;50.600;4.608;2023-04-01T22:30:17;18.40;70.30
22416;DHT22;12204;50.600;4.608;2023-04-01T22:35:32;18.30;70.40
22416;DHT22;12204;50.600;4.608;2023-04-01T22:40:47;18.40;70.30
22416;DHT22;12204;50.600;4.608;2023-04-01T22:46:07;18.40;70.20
22416;DHT22;12204;50.600;4.608;2023-04-01T22:51:38;18.30;70.20
22416;DHT22;12204;50.600;4.608;2023-04-01T22:56:51;18.30;71.10
22416;DHT22;12204;50.600;4.608;2023-04-01T23:02:00;18.30;70.40
22416;DHT22;12204;50.600;4.608;2023-04-01T23:07:24;18.40;70.30
22416;DHT22;12204;50.600;4.608;2023-04-01T23:12:40;18.30;70.10
22416;DHT22;12204;50.600;4.608;2023-04-01T23:17:55;18.30;70.30
22416;DHT22;12204;50.600;4.608;2023-04-01T23:23:24;18.30;70.40
22416;DHT22;12204;50.600;4.608;2023-04-01T23:28:48;18.30;70.60
22416;DHT22;12204;50.600;4.608;2023-04-01T23:33:54;18.30;70.60
22416;DHT22;12204;50.600;4.608;2023-04-01T23:39:02;18.30;70.40
22416;DHT22;12204;50.600;4.608;2023-04-01T23:44:12;18.30;70.20
22416;DHT22;12204;50.600;4.608;2023-04-01T23:49:19;18.30;70.20
22416;DHT22;12204;50.600;4.608;2023-04-01T23:54:32;18.30;70.30
22416;DHT22;12204;50.600;4.608;2023-04-01T23:59:38;18.30;70.50
